createdAt,value
2022-11-29T00:01:14.332Z,11.73
2022-11-29T00:03:47.209Z,12.88
2022-11-29T00:06:20.938Z,12.48
2022-11-29T00:08:54.922Z,11.90
2022-11-29T00:11:47.709Z,11.93
2022-11-29T00:14:21.664Z,10.90
2022-11-29T00:16:55.896Z,10.80
2022-11-29T00:19:29.355Z,11.80
2022-11-29T00:22:02.588Z,10.50
2022-11-29T00:24:36.524Z,12.18
2022-11-29T00:27:09.045Z,12.35
2022-11-29T00:29:42.244Z,11.82
2022-11-29T00:32:14.679Z,11.27
2022-11-29T00:34:47.588Z,13.15
2022-11-29T00:37:20.156Z,11.95
2022-11-29T00:39:53.150Z,12.13
2022-11-29T00:42:25.756Z,11.77
2022-11-29T00:44:58.681Z,12.00
2022-11-29T00:47:31.199Z,12.55
2022-11-29T00:50:04.502Z,12.43
2022-11-29T00:52:37.216Z,11.80
2022-11-29T00:55:10.249Z,12.02
2022-11-29T00:57:42.897Z,12.30
2022-11-29T01:00:16.127Z,11.63
2022-11-29T01:02:48.685Z,12.10
2022-11-29T01:05:21.731Z,11.80
2022-11-29T01:07:54.428Z,12.35
2022-11-29T01:10:27.378Z,12.70
2022-11-29T01:12:59.932Z,12.10
2022-11-29T01:15:32.967Z,13.33
2022-11-29T01:18:05.760Z,11.43
2022-11-29T01:20:38.776Z,13.13
2022-11-29T01:23:11.504Z,13.85
2022-11-29T01:25:44.348Z,12.50
2022-11-29T01:28:16.938Z,12.88
2022-11-29T01:30:49.788Z,12.73
2022-11-29T01:33:22.735Z,12.52
2022-11-29T01:35:55.719Z,14.00
2022-11-29T01:38:28.395Z,12.48
2022-11-29T01:41:01.377Z,12.23
2022-11-29T01:43:34.401Z,13.43
2022-11-29T01:46:07.464Z,12.80
2022-11-29T01:54:10.463Z,11.88
2022-11-29T01:56:45.658Z,12.10
2022-11-29T01:59:23.609Z,13.37
2022-11-29T02:02:07.317Z,12.55
2022-11-29T02:04:42.124Z,11.55
2022-11-29T02:07:15.579Z,12.25
2022-11-29T02:09:48.258Z,11.63
2022-11-29T02:12:30.891Z,10.60
2022-11-29T02:15:22.045Z,10.93
2022-11-29T02:17:55.134Z,10.93
2022-11-29T02:20:46.385Z,12.50
2022-11-29T02:23:33.070Z,12.77
2022-11-29T02:26:17.858Z,11.73
2022-11-29T02:28:53.858Z,11.55
2022-11-29T02:31:44.979Z,11.67
2022-11-29T02:34:31.919Z,12.30
2022-11-29T02:37:30.712Z,11.35
2022-11-29T02:40:22.312Z,12.05
2022-11-29T02:42:57.011Z,13.00
2022-11-29T02:45:48.947Z,11.73
2022-11-29T02:48:41.824Z,11.73
2022-11-29T02:51:21.262Z,11.57
2022-11-29T02:53:58.965Z,14.48
2022-11-29T02:56:34.743Z,15.23
2022-11-29T02:59:07.296Z,13.15
2022-11-29T03:01:59.250Z,16.63
2022-11-29T03:04:48.756Z,12.55
2022-11-29T03:07:25.899Z,12.15
2022-11-29T03:10:05.497Z,12.57
2022-11-29T03:12:43.728Z,14.57
2022-11-29T03:15:19.058Z,13.75
2022-11-29T03:18:10.247Z,15.95
2022-11-29T03:21:00.885Z,15.48
2022-11-29T03:23:36.799Z,14.10
2022-11-29T03:26:11.657Z,14.38
2022-11-29T03:29:07.494Z,12.38
2022-11-29T03:31:46.562Z,14.60
2022-11-29T03:34:39.626Z,13.80
2022-11-29T03:37:17.932Z,14.23
2022-11-29T03:39:50.889Z,13.85
2022-11-29T03:42:31.048Z,13.40
2022-11-29T03:45:08.129Z,13.43
2022-11-29T03:47:45.492Z,14.10
2022-11-29T03:50:23.559Z,12.88
2022-11-29T03:52:56.117Z,13.50
2022-11-29T03:55:49.467Z,13.65
2022-11-29T03:58:28.264Z,13.65
2022-11-29T04:01:04.137Z,14.00
2022-11-29T04:03:55.225Z,13.75
2022-11-29T04:06:36.920Z,13.20
2022-11-29T04:09:27.912Z,13.65
2022-11-29T04:12:03.673Z,14.17
2022-11-29T04:14:38.988Z,13.48
2022-11-29T04:17:14.954Z,15.32
2022-11-29T04:20:06.109Z,14.75
2022-11-29T04:22:57.541Z,15.30
2022-11-29T04:25:49.167Z,15.10
2022-11-29T04:28:34.188Z,14.65
2022-11-29T04:31:06.691Z,14.80
2022-11-29T04:33:39.601Z,13.93
2022-11-29T04:36:26.446Z,14.85
2022-11-29T04:39:05.689Z,15.00
2022-11-29T04:41:38.199Z,13.77
2022-11-29T04:44:13.884Z,14.40
2022-11-29T04:46:46.357Z,14.68
2022-11-29T04:49:37.767Z,15.50
2022-11-29T04:52:23.239Z,14.80
2022-11-29T04:55:26.340Z,15.27
2022-11-29T04:58:03.105Z,14.65
2022-11-29T05:00:39.712Z,14.82
2022-11-29T05:03:16.875Z,14.07
2022-11-29T05:06:02.092Z,13.60
2022-11-29T05:08:46.793Z,16.85
2022-11-29T05:11:41.671Z,14.27
2022-11-29T05:14:32.873Z,15.70
2022-11-29T05:17:24.232Z,14.13
2022-11-29T05:20:01.877Z,13.70
2022-11-29T05:22:53.502Z,14.43
2022-11-29T05:25:44.661Z,15.10
2022-11-29T05:28:33.644Z,16.17
2022-11-29T05:31:24.768Z,15.02
2022-11-29T05:33:57.671Z,13.57
2022-11-29T05:36:36.511Z,14.10
2022-11-29T05:39:30.426Z,16.30
2022-11-29T05:42:21.680Z,14.20
2022-11-29T05:44:59.309Z,15.35
2022-11-29T05:47:42.179Z,14.48
2022-11-29T05:50:18.151Z,14.88
2022-11-29T05:52:54.190Z,15.32
2022-11-29T05:55:39.755Z,13.77
2022-11-29T05:58:17.916Z,14.70
2022-11-29T06:01:02.111Z,14.23
2022-11-29T06:03:41.622Z,14.27
2022-11-29T06:06:18.166Z,15.70
2022-11-29T06:09:11.098Z,15.27
2022-11-29T06:11:52.550Z,14.88
2022-11-29T06:14:44.088Z,14.90
2022-11-29T06:17:25.879Z,15.10
2022-11-29T06:20:17.225Z,13.82
2022-11-29T06:22:59.254Z,14.98
2022-11-29T06:25:32.049Z,13.68
2022-11-29T06:28:17.284Z,14.15
2022-11-29T06:30:55.750Z,13.45
2022-11-29T06:33:34.401Z,15.43
2022-11-29T06:36:16.389Z,16.48
2022-11-29T06:38:49.505Z,16.38
2022-11-29T06:41:23.679Z,14.10
2022-11-29T06:43:56.792Z,14.70
2022-11-29T06:46:49.168Z,15.68
2022-11-29T06:49:27.931Z,13.75
2022-11-29T06:52:26.706Z,14.63
2022-11-29T06:55:00.179Z,15.38
2022-11-29T06:57:38.822Z,16.90
2022-11-29T07:00:15.098Z,13.60
2022-11-29T07:02:57.448Z,13.82
2022-11-29T07:05:31.883Z,14.80
2022-11-29T07:08:06.114Z,15.00
2022-11-29T07:10:40.108Z,18.40
2022-11-29T07:13:14.317Z,17.10
2022-11-29T07:15:47.432Z,16.30
2022-11-29T07:18:20.241Z,13.50
2022-11-29T07:21:02.026Z,13.35
2022-11-29T07:23:53.202Z,13.87
2022-11-29T07:26:26.557Z,14.40
2022-11-29T07:29:05.317Z,14.50
2022-11-29T07:31:41.350Z,15.20
2022-11-29T07:34:18.463Z,15.48
2022-11-29T07:36:57.883Z,14.48
2022-11-29T07:39:48.074Z,13.82
2022-11-29T07:42:34.019Z,14.88
2022-11-29T07:45:14.982Z,15.50
2022-11-29T07:47:49.135Z,15.00
2022-11-29T07:50:22.323Z,14.80
2022-11-29T07:52:56.023Z,14.02
2022-11-29T07:55:29.978Z,17.98
2022-11-29T07:58:03.086Z,15.48
2022-11-29T08:00:35.966Z,15.52
2022-11-29T08:03:09.767Z,14.80
2022-11-29T08:05:45.353Z,14.75
2022-11-29T08:08:18.300Z,15.07
2022-11-29T08:10:50.876Z,16.27
2022-11-29T08:13:23.976Z,14.15
2022-11-29T08:15:56.598Z,13.57
2022-11-29T08:18:29.811Z,13.77
2022-11-29T08:21:06.104Z,14.65
2022-11-29T08:23:38.922Z,14.40
2022-11-29T08:26:11.962Z,14.93
2022-11-29T08:28:45.105Z,13.55
2022-11-29T08:31:17.964Z,14.38
2022-11-29T08:33:50.925Z,15.68
2022-11-29T08:36:23.449Z,15.27
2022-11-29T08:39:03.459Z,14.75
2022-11-29T08:41:40.171Z,16.05
2022-11-29T08:44:13.080Z,13.50
2022-11-29T08:47:04.626Z,14.40
2022-11-29T08:49:57.474Z,14.43
2022-11-29T08:52:55.636Z,14.90
2022-11-29T08:55:31.002Z,14.10
2022-11-29T08:58:05.488Z,14.43
2022-11-29T09:00:38.519Z,14.10
2022-11-29T09:03:29.472Z,15.25
2022-11-29T09:06:09.000Z,14.30
2022-11-29T09:08:45.362Z,15.40
2022-11-29T09:11:21.264Z,14.02
2022-11-29T09:13:56.309Z,13.70
2022-11-29T09:16:30.761Z,13.17
2022-11-29T09:19:04.441Z,14.25
2022-11-29T09:21:37.515Z,13.38
2022-11-29T09:24:11.024Z,15.40
2022-11-29T09:26:47.284Z,14.48
2022-11-29T09:29:19.968Z,15.48
2022-11-29T09:31:52.875Z,14.65
2022-11-29T09:34:25.532Z,13.75
2022-11-29T09:36:58.545Z,13.75
2022-11-29T09:39:31.161Z,12.32
2022-11-29T09:42:13.142Z,13.25
2022-11-29T09:44:45.852Z,13.57
2022-11-29T09:47:18.900Z,13.50
2022-11-29T09:50:10.012Z,16.17
2022-11-29T09:53:15.462Z,15.27
2022-11-29T09:55:50.824Z,14.25
2022-11-29T09:58:27.135Z,12.60
2022-11-29T10:01:03.316Z,11.88
2022-11-29T10:03:41.295Z,12.77
2022-11-29T10:06:16.516Z,13.23
2022-11-29T10:08:52.475Z,12.15
2022-11-29T10:11:31.195Z,12.50
2022-11-29T10:14:10.807Z,13.27
2022-11-29T10:16:51.270Z,12.27
2022-11-29T10:19:33.561Z,12.90
2022-11-29T10:22:08.150Z,14.15
2022-11-29T10:24:42.730Z,12.15
2022-11-29T10:27:24.109Z,13.07
2022-11-29T10:29:57.598Z,12.82
2022-11-29T10:32:32.510Z,11.57
2022-11-29T10:35:06.318Z,12.40
2022-11-29T10:37:39.295Z,12.25
2022-11-29T10:40:15.367Z,11.27
2022-11-29T10:42:53.658Z,12.30
2022-11-29T10:45:39.304Z,11.35
2022-11-29T10:48:13.015Z,9.93
2022-11-29T10:50:48.861Z,12.20
2022-11-29T10:53:31.116Z,11.13
2022-11-29T10:56:17.221Z,11.63
2022-11-29T10:58:58.208Z,10.57
2022-11-29T11:01:34.033Z,11.15
2022-11-29T11:04:10.236Z,10.73
2022-11-29T11:06:49.472Z,10.57
2022-11-29T11:09:22.156Z,10.75
2022-11-29T11:11:56.766Z,10.82
2022-11-29T11:14:30.662Z,10.63
2022-11-29T11:17:26.682Z,9.95
2022-11-29T11:20:01.300Z,11.85
2022-11-29T11:22:35.476Z,9.95
2022-11-29T11:25:24.906Z,10.02
2022-11-29T11:28:00.487Z,9.93
2022-11-29T11:30:33.467Z,10.23
2022-11-29T11:33:09.441Z,11.13
2022-11-29T11:35:42.013Z,11.88
2022-11-29T11:38:16.822Z,11.35
2022-11-29T11:40:53.604Z,11.77
2022-11-29T11:43:31.759Z,13.20
2022-11-29T11:46:07.896Z,12.20
2022-11-29T11:48:42.708Z,10.32
2022-11-29T11:51:25.682Z,13.07
2022-11-29T11:53:58.709Z,10.55
2022-11-29T11:56:34.688Z,11.43
2022-11-29T11:59:16.828Z,10.68
2022-11-29T12:01:49.369Z,10.57
2022-11-29T12:04:34.331Z,11.90
2022-11-29T12:07:38.695Z,9.32
2022-11-29T12:10:19.073Z,8.48
2022-11-29T12:12:52.260Z,11.20
2022-11-29T12:15:38.608Z,9.20
2022-11-29T12:18:12.675Z,7.57
2022-11-29T12:20:56.460Z,8.45
2022-11-29T12:23:39.861Z,7.63
2022-11-29T12:26:55.380Z,8.73
2022-11-29T12:29:19.751Z,9.45
2022-11-29T12:31:59.595Z,8.23
2022-11-29T12:34:47.508Z,7.57
2022-11-29T12:37:26.681Z,7.90
2022-11-29T12:40:14.355Z,7.35
2022-11-29T12:42:51.896Z,8.60
2022-11-29T12:45:35.056Z,7.55
2022-11-29T12:48:20.031Z,6.70
2022-11-29T12:50:52.688Z,7.63
2022-11-29T12:53:28.268Z,7.63
2022-11-29T12:56:07.460Z,6.20
2022-11-29T12:58:49.767Z,6.00
2022-11-29T13:01:31.617Z,6.50
2022-11-29T13:04:04.689Z,5.68
2022-11-29T13:06:49.394Z,6.10
2022-11-29T13:09:31.659Z,6.47
2022-11-29T13:12:16.053Z,6.47
2022-11-29T13:14:58.167Z,5.97
2022-11-29T13:17:34.018Z,5.88
2022-11-29T13:20:10.100Z,6.20
2022-11-29T13:22:52.371Z,5.68
2022-11-29T13:25:27.892Z,5.55
2022-11-29T13:28:08.173Z,6.00
2022-11-29T13:30:41.696Z,6.70
2022-11-29T13:33:27.434Z,6.07
2022-11-29T13:36:09.169Z,5.63
2022-11-29T13:38:41.688Z,7.28
2022-11-29T13:41:14.606Z,6.40
2022-11-29T13:43:55.232Z,6.65
2022-11-29T13:46:35.661Z,8.38
2022-11-29T13:49:19.653Z,7.63
2022-11-29T13:52:04.319Z,6.82
2022-11-29T13:54:36.836Z,6.47
2022-11-29T13:57:10.229Z,7.40
2022-11-29T13:59:49.125Z,7.05
2022-11-29T14:02:30.458Z,7.15
2022-11-29T14:05:03.708Z,6.30
2022-11-29T14:07:56.623Z,7.15
2022-11-29T14:10:30.213Z,6.50
2022-11-29T14:13:05.164Z,8.60
2022-11-29T14:15:38.070Z,6.72
2022-11-29T14:18:46.513Z,7.55
2022-11-29T14:21:19.046Z,8.70
2022-11-29T14:23:51.948Z,8.35
2022-11-29T14:26:28.665Z,8.30
2022-11-29T14:29:05.662Z,7.68
2022-11-29T14:31:48.874Z,9.27
2022-11-29T14:34:27.215Z,6.97
2022-11-29T14:37:05.624Z,8.02
2022-11-29T14:39:43.268Z,7.40
2022-11-29T14:42:24.120Z,7.72
2022-11-29T14:45:07.311Z,7.70
2022-11-29T14:47:48.317Z,6.88
2022-11-29T14:50:38.404Z,9.52
2022-11-29T14:53:28.888Z,8.20
2022-11-29T14:56:20.359Z,10.07
2022-11-29T14:59:13.096Z,8.77
2022-11-29T15:01:46.516Z,8.55
2022-11-29T15:04:19.302Z,8.50
2022-11-29T15:06:54.990Z,10.13
2022-11-29T15:09:27.944Z,8.35
2022-11-29T15:12:13.016Z,10.20
2022-11-29T15:15:04.113Z,8.65
2022-11-29T15:17:55.114Z,12.68
2022-11-29T15:20:39.689Z,8.90
2022-11-29T15:23:18.679Z,9.35
2022-11-29T15:25:52.544Z,12.50
2022-11-29T15:28:26.676Z,10.93
2022-11-29T15:31:09.913Z,13.10
2022-11-29T17:00:32.320Z,16.30
2022-11-29T17:03:05.244Z,15.40
2022-11-29T17:05:43.134Z,17.13
2022-11-29T17:08:17.661Z,16.52
2022-11-29T17:10:50.356Z,18.13
2022-11-29T17:13:24.622Z,19.10
2022-11-29T17:15:57.314Z,16.48
2022-11-29T17:18:30.645Z,17.60
2022-11-29T17:21:03.186Z,18.73
2022-11-29T17:23:36.071Z,19.13
2022-11-29T17:26:09.659Z,17.23
2022-11-29T17:28:43.733Z,15.32
2022-11-29T17:31:17.676Z,13.68
2022-11-29T17:33:51.455Z,13.88
2022-11-29T17:36:23.925Z,14.93
2022-11-29T17:38:57.009Z,15.03
2022-11-29T17:41:29.871Z,15.73
2022-11-29T17:44:03.052Z,16.15
2022-11-29T17:46:36.748Z,16.17
2022-11-29T17:49:10.252Z,16.05
2022-11-29T17:51:51.781Z,16.52
2022-11-29T17:54:25.040Z,16.77
2022-11-29T17:56:57.539Z,17.97
2022-11-29T17:59:30.374Z,18.65
2022-11-29T18:02:04.211Z,20.80
2022-11-29T18:04:37.765Z,22.83
2022-11-29T18:07:10.347Z,22.37
2022-11-29T18:09:43.645Z,19.13
2022-11-29T18:12:16.838Z,21.25
2022-11-29T18:14:51.233Z,21.55
2022-11-29T18:17:23.843Z,22.35
2022-11-29T18:19:56.841Z,22.10
2022-11-29T18:22:29.455Z,22.03
2022-11-29T18:25:30.757Z,21.77
2022-11-29T18:27:55.287Z,23.30
2022-11-29T18:30:28.258Z,23.00
2022-11-29T18:33:00.941Z,21.63
2022-11-29T18:35:33.779Z,22.38
2022-11-29T18:38:15.408Z,21.63
2022-11-29T18:40:49.147Z,20.50
2022-11-29T18:43:21.662Z,20.73
2022-11-29T18:45:54.627Z,20.50
2022-11-29T18:48:30.297Z,20.27
2022-11-29T18:51:04.584Z,20.55
2022-11-29T18:53:37.673Z,21.08
2022-11-29T18:56:16.053Z,21.60
2022-11-29T18:58:57.999Z,20.95
2022-11-29T19:01:33.169Z,18.48
2022-11-29T19:04:05.718Z,20.00
2022-11-29T19:06:40.227Z,19.45
2022-11-29T19:09:18.503Z,20.55
2022-11-29T19:11:53.274Z,19.30
2022-11-29T19:14:27.348Z,19.47
2022-11-29T19:17:01.612Z,24.40
2022-11-29T19:19:34.301Z,23.15
2022-11-29T19:22:08.500Z,23.55
2022-11-29T19:24:40.961Z,21.63
2022-11-29T19:27:13.889Z,23.60
2022-11-29T19:41:32.677Z,19.15
2022-11-29T19:44:06.481Z,24.50
2022-11-29T19:46:40.703Z,27.98
2022-11-29T19:49:13.776Z,22.33
2022-11-29T19:51:46.349Z,18.87
2022-11-29T19:54:19.348Z,21.73
2022-11-29T19:56:51.879Z,19.00
2022-11-29T19:59:25.454Z,20.50
2022-11-29T20:01:58.013Z,21.70
2022-11-29T20:04:30.995Z,19.17
2022-11-29T20:07:03.927Z,20.50
2022-11-29T20:09:37.067Z,19.83
2022-11-29T20:12:09.906Z,19.08
2022-11-29T20:14:42.885Z,21.52
2022-11-29T20:17:15.441Z,20.48
2022-11-29T20:19:48.637Z,17.85
2022-11-29T20:22:21.403Z,20.33
2022-11-29T20:24:55.035Z,20.20
2022-11-29T20:27:27.622Z,19.15
2022-11-29T20:30:00.643Z,19.53
2022-11-29T20:32:34.691Z,21.03
2022-11-29T20:35:07.946Z,20.10
2022-11-29T20:37:58.580Z,20.80
2022-11-29T20:40:40.554Z,18.90
2022-11-29T20:43:24.505Z,21.02
2022-11-29T20:45:57.558Z,21.00
2022-11-29T20:48:30.342Z,20.17
2022-11-29T20:51:03.585Z,21.63
2022-11-29T20:53:43.420Z,20.63
2022-11-29T20:56:16.330Z,22.77
2022-11-29T20:58:48.956Z,20.50
2022-11-29T21:01:22.279Z,22.50
2022-11-29T21:03:55.107Z,23.27
2022-11-29T21:06:28.216Z,23.55
2022-11-29T21:09:00.766Z,22.88
2022-11-29T21:11:33.883Z,21.77
2022-11-29T21:14:08.027Z,22.20
2022-11-29T21:16:41.038Z,22.23
2022-11-29T21:19:18.768Z,22.35
2022-11-29T21:21:51.665Z,24.52
2022-11-29T21:24:30.942Z,23.23
2022-11-29T21:27:04.053Z,22.10
2022-11-29T21:29:36.869Z,22.98
2022-11-29T21:32:19.416Z,21.73
2022-11-29T21:34:52.323Z,21.35
2022-11-29T21:37:28.643Z,21.33
2022-11-29T21:40:01.998Z,22.40
2022-11-29T21:42:36.492Z,22.98
2022-11-29T21:45:14.817Z,25.25
2022-11-29T21:47:49.250Z,23.25
2022-11-29T21:50:21.958Z,23.52
2022-11-29T21:52:54.815Z,22.13
2022-11-29T21:55:32.126Z,21.80
2022-11-29T21:58:05.573Z,27.63
2022-11-29T22:00:38.071Z,25.10
2022-11-29T22:03:11.286Z,27.00
2022-11-29T22:05:43.827Z,24.27
2022-11-29T22:08:17.359Z,24.17
2022-11-29T22:10:49.908Z,22.73
2022-11-29T22:13:22.777Z,23.10
2022-11-29T22:15:55.388Z,23.45
2022-11-29T22:18:28.682Z,21.95
2022-11-29T22:21:07.723Z,22.20
2022-11-29T22:23:40.939Z,23.53
2022-11-29T22:26:13.520Z,21.40
2022-11-29T22:28:46.586Z,22.67
2022-11-29T22:31:19.178Z,24.13
2022-11-29T22:33:55.508Z,22.95
2022-11-29T22:36:28.300Z,24.20
2022-11-29T22:39:01.293Z,23.98
2022-11-29T22:41:34.378Z,22.77
2022-11-29T22:44:07.673Z,23.50
2022-11-29T22:46:42.558Z,24.80
2022-11-29T22:49:15.584Z,22.08
2022-11-29T22:51:48.166Z,23.90
2022-11-29T22:54:21.261Z,22.17
2022-11-29T22:56:53.769Z,24.13
2022-11-29T22:59:26.719Z,23.55
2022-11-29T23:01:59.263Z,22.35
2022-11-29T23:04:32.189Z,24.43
2022-11-29T23:07:04.763Z,23.80
2022-11-29T23:09:37.747Z,23.13
2022-11-29T23:12:11.055Z,23.13
2022-11-29T23:14:44.196Z,21.10
2022-11-29T23:17:16.852Z,22.70
2022-11-29T23:19:49.947Z,20.58
2022-11-29T23:22:22.450Z,21.63
2022-11-29T23:24:55.373Z,20.40
2022-11-29T23:27:27.912Z,20.75
2022-11-29T23:30:00.788Z,20.85
2022-11-29T23:32:33.413Z,20.17
2022-11-29T23:35:06.420Z,19.40
2022-11-29T23:37:39.113Z,19.90
2022-11-29T23:40:12.593Z,21.10
2022-11-29T23:42:47.204Z,19.23
2022-11-29T23:45:20.306Z,19.42
2022-11-29T23:47:53.540Z,19.52
2022-11-29T23:50:26.451Z,20.55
2022-11-29T23:52:59.219Z,17.85
2022-11-29T23:55:32.202Z,18.33
2022-11-29T23:58:04.827Z,20.27
